Content
SEND FEEDBACK

Daily
Averages
Monthly
Summary
Switzerland

GENEVA, SWITZERLAND


Home > Europe > Switzerland
Elevation: 415 meters     Latitude: 46 15N     Longitude: 006 08E

WEATHER
 
SELECT A DAY
Number of Records: 315,773;   Date Range: 7/1/96 - 11/27/14
 
SHARE

PRINT THIS DATA

[ ← Previous Day ]
WEATHER ALMANAC - 17 APRIL, 2013
[ Next Day → ]
[ °F ]   °C
Weather ElementAverageHighLow
Temperature16.7 °C25 °C (5:20 pm)8.9 °C (6:00 am)
Dewpoint8.2 °C10 °C (9:20 pm)5 °C (6:20 pm)
Humidity58.1 %93 % (5:50 am)19 % (6:00 pm)
Barometer1022.4 hPa1025.1 hPa (6:00 am)1017.9 hPa (7:00 pm)
Wind Speed5.1 km/h14.8 km/h (12:00 pm)
Weather ElementAverage
Visibility34.3 km
Wind DirectionENE (81.6 °)

Weather ElementTotal
Precipitation---
Heating Degree Days1.4 (Base 18.3)
Growing Degree Days6.9 (Base 10)
Averaged from 64 records on 17 April, 2013
WEATHER CONDITIONS BREAKOUT
WIND DIRECTION BREAKOUT
WEATHER BY HOUR - 17 APRIL, 2013
[ °F ]   °C
Local TimeTemperatureDewpointHumidityBarometerVisibilityWind DirectionWind SpeedGust SpeedPrecipitationEventsConditions
12:20 AM14 °C9 °C72 %1023 hPaVariable3.7 km/hClear
12:50 AM13 °C9 °C77 %1023 hPaVariable1.9 km/hClear
1:00 AM13.9 °C8.3 °C60 %1023.7 hPaNorth (10°)3.7 km/h
1:20 AM14 °C9 °C72 %1024 hPaVariable3.7 km/hClear
1:50 AM13 °C9 °C77 %1024 hPaVariable1.9 km/hClear
2:00 AM12.8 °C8.3 °C68 %1024 hPa30.6 kmNW (320°)3.7 km/hOvercast
2:20 AM12 °C9 °C82 %1024 hPaNNW (330°)5.6 km/hClear
2:50 AM12 °C9 °C82 %1024 hPaVariable3.7 km/hClear
3:00 AM12.8 °C8.3 °C67 %1024 hPaNNE (30°)5.6 km/h
3:50 AM11 °C9 °C88 %1024 hPaVariable1.9 km/hClear
4:00 AM10.6 °C7.2 °C74 %1024.4 hPaWest (260°)1.9 km/h
4:20 AM11 °C8 °C82 %1024 hPaVariable3.7 km/hClear
4:50 AM10 °C8 °C87 %1024 hPaSW (230°)1.9 km/hClear
5:20 AM10 °C8 °C87 %1024 hPaWNW (290°)1.9 km/hClear
5:50 AM9 °C8 °C93 %1024 hPaCalmClear
6:00 AM8.9 °C7.2 °C84 %1025.1 hPaWNW (300°)1.9 km/h
6:20 AM9 °C7 °C87 %1024 hPaCalmClear
6:50 AM9 °C7 °C87 %1024 hPaVariable1.9 km/hClear
7:00 AM9.4 °C6.7 °C78 %1025.1 hPaNNW (340°)5.6 km/h
7:20 AM9 °C7 °C87 %1024 hPaVariable1.9 km/hClear
7:50 AM11 °C8 °C82 %1024 hPaCalmClear
8:00 AM10.6 °C8.3 °C80 %1024.7 hPa35.4 kmCalmClear
8:20 AM14 °C9 °C72 %1024 hPaCalmClear
8:50 AM15 °C8 °C63 %1024 hPaVariable1.9 km/hClear
9:00 AM13.9 °C8.9 °C62 %1024.4 hPaNorth (350°)1.9 km/h
9:20 AM15 °C9 °C67 %1024 hPaVariable1.9 km/hClear
9:50 AM16 °C9 °C63 %1024 hPaVariable5.6 km/hClear
10:00 AM15.6 °C8.9 °C54 %1024 hPaENE (60°)5.6 km/h
10:20 AM17 °C9 °C59 %1024 hPaNE (50°)5.6 km/hClear
10:50 AM17 °C8 °C55 %1024 hPaVariable3.7 km/hClear
11:20 AM18 °C9 °C56 %1024 hPaNorth (10°)7.4 km/hClear
11:50 AM19 °C9 °C52 %1024 hPaNNE (30°)9.3 km/hClear
12:00 PM18.9 °C8.9 °C41 %1023.4 hPaNE (50°)14.8 km/h
12:20 PM19 °C9 °C52 %1024 hPaNNE (30°)11.1 km/hClear
12:50 PM20 °C9 °C49 %1023 hPaENE (60°)11.1 km/hClear
1:00 PM19.4 °C8.3 °C37 %1022.4 hPaNE (50°)11.1 km/h
1:20 PM21 °C9 °C46 %1023 hPaENE (60°)11.1 km/hClear
1:50 PM21 °C9 °C46 %1023 hPaENE (60°)7.4 km/hClear
2:00 PM20.6 °C8.3 °C34 %1021.7 hPa30.6 kmENE (70°)7.4 km/hClear
2:20 PM21 °C8 °C43 %1023 hPaEast (90°)9.3 km/hClear
2:50 PM22 °C9 °C43 %1022 hPaEast (80°)7.4 km/hClear
3:00 PM21.7 °C8.9 °C33 %1020.7 hPaENE (60°)7.4 km/h
3:20 PM22 °C9 °C43 %1022 hPaENE (70°)5.6 km/hClear
3:50 PM23 °C9 °C41 %1021 hPaENE (60°)7.4 km/hClear
4:00 PM21.7 °C7.8 °C30 %1020 hPaEast (100°)9.3 km/h
4:20 PM23 °C9 °C41 %1021 hPaENE (70°)9.3 km/hClear
4:50 PM24 °C9 °C38 %1021 hPaVariable3.7 km/hClear
5:20 PM25 °C6 °C29 %1020 hPaSW (220°)7.4 km/hClear
5:50 PM25 °C6 °C29 %1020 hPaSW (220°)11.1 km/hClear
6:00 PM24.4 °C5.6 °C19 %1018.3 hPaSW (220°)13 km/h
6:20 PM25 °C5 °C28 %1020 hPaSW (220°)11.1 km/hClear
6:50 PM25 °C5 °C28 %1020 hPaSW (230°)9.3 km/hClear
7:00 PM23.3 °C6.7 °C23 %1017.9 hPaSW (220°)9.3 km/h
7:20 PM24 °C7 °C34 %1020 hPaESE (120°)5.6 km/hClear
7:50 PM22 °C8 °C41 %1020 hPaVariable5.6 km/hClear
8:00 PM20.6 °C7.8 °C33 %1018.6 hPa40.2 kmEast (80°)5.6 km/hClear
8:20 PM20 °C9 °C49 %1020 hPaVariable1.9 km/hClear
8:50 PM18 °C9 °C56 %1020 hPaVariable1.9 km/hClear
9:00 PM16.7 °C9.4 °C51 %1020 hPaEast (90°)5.6 km/h
9:20 PM16 °C10 °C68 %1020 hPaVariable1.9 km/hClear
9:50 PM16 °C9 °C63 %1020 hPaCalmClear
10:50 PM16 °C8 °C59 %1021 hPaVariable1.9 km/hClear
11:20 PM15 °C8 °C63 %1021 hPaCalmClear
11:50 PM14 °C9 °C72 %1021 hPaCalmClear
Hourly data recorded from LSGG, located 0 kilometers away from Geneva, Switzerland







STORIES FROM OUR PARTNERS